Pagina principale
METAR-TAF:

METAR-TAF

Aeroporti :

Tarvisio, Italia

latitudine: 46-30N, longitudine: 013-35E, altezza: 777 m

Osservazione

Il bollettino è stato emesso 9 ore e 22 minuti fa, alle 17:55 UTC
Vento 8 kt da ovest
Temperature 7°C
Umidità 76%
Pressione 1017 hPa
Visibilità 10 km o più
nessuna nube inferiore a 1500 m e nessun cumulonembo

METAR: LIVO 231755Z 26008KT CAVOK 07/03 Q1017 RMK FEW FEW080 VIS MIN 9999

Ora: 04:17 (03:17 UTC)


TAF: mancante

Osservazioni e previsioni meteorologiche di più di 4000 aeroporti (messaggi METAR e TAF).

Le stazioni disponibili sono rappresentate dai dischi gialli e rossi sulla carta.

Puntare il mouse per vedere il nome della stazione.

Clicca sopra per visualizzare le osservazioni e previsioni meteorologiche.

Per cambiare la mappa : fare clic sui pulsanti verdi con una croce nera per ingrandire, il pulsante verde con un trattino per diminuire, o sulla freccia verde per le mappe adiacenti.


METAR-TAF: